INDIA METEOROLOGICAL DEPARTMENT, R.M.C. NEW DELHI
Dated:3 - 10 - 2022
METARS OF ALTERNATE AIRPORTS
Delhi      
VIDP 030400Z 29009KT 2800 HZ NSC 29/20 Q1009 BECMG 3000 HZ=
Lucknow    
VILK 030400Z VRB02KT 2500 BR FEW020 SCT100 30/26 Q1006 BECMG 3000 BR HZ=
Jaipur     
VIJP 030400Z 33012KT 5000 HZ FEW100 29/19 Q1012 NOSIG=
Ahmedabad  
VAAH 030400Z 33006KT 4000 HZ NSC 30/25 Q1010 NOSIG=
Udaipur    
VAUD 030400Z 30004KT 6000 NSC 28/21 Q1013 NOSIG=
Mumbai     
VABB 030400Z 01004KT 3000 HZ FEW020 SCT025 29/24 Q1011 NOSIG=